createdAt,value
2023-02-11T00:00:46.158Z,13.02
2023-02-11T00:03:13.412Z,13.13
2023-02-11T00:05:40.566Z,12.93
2023-02-11T00:08:07.722Z,12.98
2023-02-11T00:10:34.899Z,12.93
2023-02-11T00:13:02.031Z,13.65
2023-02-11T00:15:29.181Z,12.93
2023-02-11T00:17:56.348Z,12.73
2023-02-11T00:20:23.504Z,13.43
2023-02-11T00:22:50.647Z,13.05
2023-02-11T00:25:17.750Z,13.60
2023-02-11T00:27:44.925Z,12.45
2023-02-11T00:30:12.267Z,12.63
2023-02-11T00:32:39.494Z,13.38
2023-02-11T00:35:07.236Z,12.55
2023-02-11T00:37:36.466Z,12.45
2023-02-11T00:40:06.743Z,14.05
2023-02-11T00:42:35.572Z,13.15
2023-02-11T00:45:04.074Z,12.82
2023-02-11T00:47:31.235Z,12.88
2023-02-11T00:49:59.197Z,13.10
2023-02-11T00:52:26.355Z,12.52
2023-02-11T00:54:53.551Z,13.02
2023-02-11T00:57:20.714Z,11.82
2023-02-11T00:59:47.950Z,13.68
2023-02-11T01:02:15.192Z,12.15
2023-02-11T01:04:42.311Z,11.55
2023-02-11T01:07:09.530Z,12.95
2023-02-11T01:09:39.058Z,12.02
2023-02-11T01:12:06.304Z,12.18
2023-02-11T01:14:33.493Z,11.77
2023-02-11T01:17:00.664Z,12.10
2023-02-11T01:19:27.773Z,11.98
2023-02-11T01:21:54.966Z,11.55
2023-02-11T01:24:22.167Z,12.13
2023-02-11T01:26:49.335Z,11.82
2023-02-11T01:29:16.503Z,12.25
2023-02-11T01:31:43.664Z,11.70
2023-02-11T01:34:10.862Z,11.73
2023-02-11T01:36:38.209Z,12.27
2023-02-11T01:39:05.454Z,12.32
2023-02-11T01:41:32.815Z,10.93
2023-02-11T01:43:59.997Z,11.32
2023-02-11T01:46:35.359Z,11.35
2023-02-11T01:49:05.517Z,10.60
2023-02-11T01:51:39.114Z,11.70
2023-02-11T01:54:25.745Z,11.30
2023-02-11T01:57:12.855Z,11.05
2023-02-11T01:59:58.795Z,11.32
2023-02-11T02:02:33.453Z,11.15
2023-02-11T02:05:15.302Z,11.05
2023-02-11T02:07:57.295Z,11.68
2023-02-11T02:10:26.489Z,11.13
2023-02-11T02:12:53.827Z,11.25
2023-02-11T02:15:29.916Z,11.77
2023-02-11T02:18:02.691Z,12.07
2023-02-11T02:20:29.810Z,10.55
2023-02-11T02:22:56.942Z,12.20
2023-02-11T02:25:42.949Z,10.90
2023-02-11T02:28:20.404Z,11.07
2023-02-11T02:31:06.234Z,11.20
2023-02-11T02:33:43.577Z,11.90
2023-02-11T02:36:16.357Z,11.35
2023-02-11T02:38:54.007Z,12.27
2023-02-11T02:41:24.007Z,11.32
2023-02-11T02:43:51.681Z,11.77
2023-02-11T02:46:23.754Z,11.68
2023-02-11T02:48:55.680Z,11.50
2023-02-11T02:51:41.622Z,10.98
2023-02-11T02:54:08.779Z,10.88
2023-02-11T02:56:46.989Z,11.60
2023-02-11T02:59:26.972Z,10.63
2023-02-11T03:02:10.941Z,10.80
2023-02-11T03:04:42.608Z,10.30
2023-02-11T03:07:13.910Z,10.32
2023-02-11T03:10:07.333Z,10.45
2023-02-11T03:12:35.731Z,11.65
2023-02-11T03:15:04.334Z,10.68
2023-02-11T03:17:33.360Z,11.48
2023-02-11T03:20:00.645Z,10.25
2023-02-11T03:22:43.542Z,12.07
2023-02-11T03:25:10.719Z,11.25
2023-02-11T03:27:54.640Z,10.10
2023-02-11T03:30:30.804Z,10.98
2023-02-11T03:33:10.253Z,11.43
2023-02-11T03:35:42.308Z,10.65
2023-02-11T03:38:20.759Z,11.20
2023-02-11T03:40:48.004Z,11.35
2023-02-11T03:43:30.555Z,11.52
2023-02-11T03:45:57.992Z,11.07
2023-02-11T03:48:32.639Z,10.63
2023-02-11T03:51:02.424Z,12.52
2023-02-11T03:53:29.633Z,11.38
2023-02-11T03:55:57.756Z,11.65
2023-02-11T03:58:25.479Z,11.45
2023-02-11T04:00:52.778Z,11.27
2023-02-11T04:03:20.084Z,10.65
2023-02-11T04:05:47.471Z,9.75
2023-02-11T04:08:14.755Z,11.13
2023-02-11T04:10:41.951Z,10.48
2023-02-11T04:13:09.167Z,11.63
2023-02-11T04:15:36.399Z,11.23
2023-02-11T04:18:03.677Z,10.45
2023-02-11T04:20:31.117Z,11.15
2023-02-11T04:22:58.307Z,10.35
2023-02-11T04:25:26.338Z,10.38
2023-02-11T04:27:53.525Z,11.05
2023-02-11T04:30:20.704Z,10.15
2023-02-11T04:32:47.891Z,11.35
2023-02-11T04:35:15.041Z,10.13
2023-02-11T04:37:42.226Z,10.73
2023-02-11T04:40:09.717Z,11.23
2023-02-11T04:42:36.860Z,10.80
2023-02-11T04:45:04.352Z,11.25
2023-02-11T04:47:31.541Z,10.88
2023-02-11T04:49:58.676Z,11.13
2023-02-11T04:52:25.840Z,10.68
2023-02-11T04:54:52.981Z,11.18
2023-02-11T04:57:20.112Z,11.18
2023-02-11T04:59:48.069Z,11.70
2023-02-11T05:02:15.186Z,11.70
2023-02-11T05:04:42.367Z,12.10
2023-02-11T05:07:09.467Z,10.40
2023-02-11T05:09:36.701Z,10.80
2023-02-11T05:12:03.942Z,11.30
2023-02-11T05:14:31.127Z,11.23
2023-02-11T05:16:58.385Z,10.88
2023-02-11T05:19:25.671Z,11.43
2023-02-11T05:22:02.240Z,10.88
2023-02-11T05:24:29.965Z,10.75
2023-02-11T05:26:57.099Z,10.93
2023-02-11T05:29:24.348Z,11.18
2023-02-11T05:31:51.444Z,11.40
2023-02-11T05:34:18.670Z,11.35
2023-02-11T05:36:45.830Z,11.40
2023-02-11T05:39:13.055Z,11.38
2023-02-11T05:41:40.292Z,11.40
2023-02-11T05:44:07.418Z,11.70
2023-02-11T05:46:34.685Z,11.93
2023-02-11T05:49:01.844Z,11.38
2023-02-11T05:51:28.993Z,11.27
2023-02-11T05:53:56.113Z,11.30
2023-02-11T05:56:23.225Z,11.00
2023-02-11T05:58:50.356Z,10.25
2023-02-11T06:01:17.565Z,11.68
2023-02-11T06:03:44.804Z,11.10
2023-02-11T06:06:12.739Z,11.52
2023-02-11T06:08:40.198Z,12.02
2023-02-11T06:11:07.337Z,11.18
2023-02-11T06:13:34.545Z,11.63
2023-02-11T06:16:02.358Z,11.55
2023-02-11T06:18:30.510Z,12.25
2023-02-11T06:20:57.745Z,11.60
2023-02-11T06:23:24.961Z,12.68
2023-02-11T06:25:53.083Z,12.25
2023-02-11T06:28:20.505Z,12.00
2023-02-11T06:30:47.691Z,12.27
2023-02-11T06:33:14.970Z,13.30
2023-02-11T06:35:42.074Z,12.60
2023-02-11T06:38:09.258Z,11.70
2023-02-11T06:40:36.411Z,11.52
2023-02-11T06:43:03.634Z,12.57
2023-02-11T06:45:30.931Z,12.25
2023-02-11T06:47:58.077Z,12.57
2023-02-11T06:50:25.263Z,12.23
2023-02-11T06:52:52.392Z,11.98
2023-02-11T06:55:19.564Z,12.65
2023-02-11T06:57:46.694Z,13.18
2023-02-11T07:00:15.324Z,13.25
2023-02-11T07:02:42.557Z,13.32
2023-02-11T07:05:10.000Z,13.55
2023-02-11T07:07:37.666Z,12.98
2023-02-11T07:10:05.854Z,12.63
2023-02-11T07:12:33.129Z,12.38
2023-02-11T07:15:00.335Z,13.88
2023-02-11T07:17:27.511Z,13.75
2023-02-11T07:19:54.670Z,14.43
2023-02-11T07:22:21.800Z,15.43
2023-02-11T07:24:48.953Z,15.02
2023-02-11T07:27:16.056Z,18.88
2023-02-11T07:29:43.652Z,28.55
2023-02-11T07:32:10.805Z,28.33
2023-02-11T07:34:38.122Z,46.83
2023-02-11T07:37:05.453Z,45.97
2023-02-11T07:39:32.749Z,44.05
2023-02-11T07:42:00.191Z,42.28
2023-02-11T07:44:27.473Z,38.53
2023-02-11T07:46:54.711Z,38.30
2023-02-11T07:49:21.864Z,38.92
2023-02-11T07:51:51.090Z,40.10
2023-02-11T07:54:18.655Z,37.67
2023-02-11T07:56:45.895Z,37.92
2023-02-11T07:59:13.270Z,37.58
2023-02-11T08:01:40.477Z,37.05
2023-02-11T08:04:07.710Z,35.38
2023-02-11T08:06:35.726Z,36.95
2023-02-11T08:09:09.952Z,34.28
2023-02-11T08:11:37.300Z,35.55
2023-02-11T08:14:04.485Z,35.70
2023-02-11T08:16:33.011Z,34.55
2023-02-11T08:19:01.603Z,34.13
2023-02-11T08:21:29.043Z,35.53
2023-02-11T08:23:56.704Z,34.05
2023-02-11T08:26:25.483Z,32.80
2023-02-11T08:28:53.648Z,33.63
2023-02-11T08:31:22.446Z,34.97
2023-02-11T08:33:50.270Z,32.92
2023-02-11T08:36:24.300Z,33.33
2023-02-11T08:38:51.783Z,32.30
2023-02-11T08:41:19.013Z,30.80
2023-02-11T08:43:46.330Z,32.20
2023-02-11T08:46:18.436Z,31.30
2023-02-11T08:48:46.319Z,31.35
2023-02-11T08:51:18.239Z,29.23
2023-02-11T08:53:45.488Z,31.20
2023-02-11T08:56:13.640Z,30.73
2023-02-11T08:58:41.156Z,30.60
2023-02-11T09:01:15.373Z,30.23
2023-02-11T09:03:42.673Z,30.15
2023-02-11T09:06:10.540Z,29.27
2023-02-11T09:08:38.290Z,30.20
2023-02-11T09:11:05.624Z,28.65
2023-02-11T09:13:33.270Z,30.90
2023-02-11T09:16:02.452Z,28.67
2023-02-11T09:18:29.759Z,28.75
2023-02-11T09:21:07.463Z,26.55
2023-02-11T09:23:34.797Z,28.48
2023-02-11T09:26:31.189Z,27.65
2023-02-11T09:28:58.507Z,28.42
2023-02-11T09:31:26.821Z,27.63
2023-02-11T09:33:55.352Z,27.98
2023-02-11T09:36:24.282Z,26.80
2023-02-11T09:38:51.720Z,26.65
2023-02-11T09:41:24.817Z,26.75
2023-02-11T09:43:56.936Z,25.65
2023-02-11T09:46:24.946Z,26.35
2023-02-11T09:48:54.134Z,25.08
2023-02-11T09:51:34.071Z,23.73
2023-02-11T09:54:05.767Z,24.35
2023-02-11T09:56:32.992Z,24.25
2023-02-11T09:59:00.279Z,24.42
2023-02-11T10:01:32.912Z,24.50
2023-02-11T10:04:03.067Z,24.45
2023-02-11T10:06:32.987Z,23.38
2023-02-11T10:09:05.647Z,23.23
2023-02-11T10:11:32.878Z,23.15
2023-02-11T10:14:18.903Z,22.73
2023-02-11T10:16:57.322Z,22.80
2023-02-11T10:19:32.019Z,20.90
2023-02-11T10:22:05.164Z,23.20
2023-02-11T10:24:32.556Z,23.42
2023-02-11T10:26:59.879Z,22.17
2023-02-11T10:29:32.665Z,21.08
2023-02-11T10:32:01.927Z,21.67
2023-02-11T10:34:29.057Z,21.80
2023-02-11T10:36:56.209Z,21.15
2023-02-11T10:39:24.661Z,22.58
2023-02-11T10:41:57.389Z,21.02
2023-02-11T10:44:32.950Z,20.27
2023-02-11T10:47:02.573Z,20.52
2023-02-11T10:49:43.043Z,22.42
2023-02-11T10:52:14.473Z,20.70
2023-02-11T10:54:41.667Z,21.05
2023-02-11T10:57:19.866Z,20.70
2023-02-11T10:59:47.349Z,22.30
2023-02-11T11:02:35.577Z,20.40
2023-02-11T11:05:09.266Z,20.23
2023-02-11T11:07:37.440Z,19.23
2023-02-11T11:10:07.404Z,19.70
2023-02-11T11:12:36.573Z,20.40
2023-02-11T11:15:03.713Z,20.35
2023-02-11T11:17:31.028Z,22.25
2023-02-11T11:20:18.440Z,21.33
2023-02-11T11:22:45.759Z,23.60
2023-02-11T11:25:23.448Z,21.13
2023-02-11T11:27:51.873Z,22.10
2023-02-11T11:30:19.739Z,21.40
2023-02-11T11:32:47.089Z,21.10
2023-02-11T11:35:22.741Z,21.45
2023-02-11T11:37:53.921Z,22.08
2023-02-11T11:40:27.072Z,21.05
2023-02-11T11:43:07.999Z,21.77
2023-02-11T11:45:35.167Z,20.80
2023-02-11T11:48:19.849Z,20.27
2023-02-11T11:50:55.553Z,20.80
2023-02-11T11:53:28.879Z,22.27
2023-02-11T11:55:58.694Z,22.00
2023-02-11T11:58:28.698Z,22.13
2023-02-11T12:00:58.689Z,21.65
2023-02-11T12:03:46.193Z,20.08
2023-02-11T12:06:28.422Z,21.50
2023-02-11T12:09:01.411Z,20.30
2023-02-11T12:11:37.944Z,21.90
2023-02-11T12:14:20.386Z,21.48
2023-02-11T12:16:47.549Z,37.25
2023-02-11T12:19:17.488Z,281.48
2023-02-11T12:22:03.726Z,276.80
2023-02-11T12:27:03.637Z,249.05
2023-02-11T12:29:49.611Z,243.18
2023-02-11T12:32:16.829Z,235.18
2023-02-11T12:35:13.365Z,224.27
2023-02-11T12:37:59.347Z,213.23
2023-02-11T12:40:26.733Z,205.30
2023-02-11T12:43:15.576Z,190.68
2023-02-11T12:45:47.287Z,212.55
2023-02-11T12:48:35.646Z,194.52
2023-02-11T12:51:21.814Z,202.00
2023-02-11T12:54:07.183Z,211.30
2023-02-11T12:56:34.275Z,190.37
2023-02-11T12:59:02.722Z,187.77
2023-02-11T13:01:35.013Z,183.25
2023-02-11T13:04:18.394Z,177.90
2023-02-11T13:06:51.940Z,170.25
2023-02-11T13:09:21.127Z,155.45
2023-02-11T13:11:51.981Z,163.80
2023-02-11T13:14:32.454Z,158.93
2023-02-11T13:17:00.027Z,154.00
2023-02-11T13:19:31.010Z,148.45
2023-02-11T13:22:04.858Z,149.73
2023-02-11T13:24:32.050Z,142.20
2023-02-11T13:27:18.315Z,138.98
2023-02-11T13:32:14.936Z,148.15
2023-02-11T13:34:42.077Z,155.00
2023-02-11T13:37:21.505Z,152.38
2023-02-11T13:40:02.565Z,167.27
2023-02-11T13:42:30.739Z,149.75
2023-02-11T13:44:58.087Z,143.10
2023-02-11T13:47:33.080Z,144.50
2023-02-11T13:50:01.143Z,128.05
2023-02-11T13:52:30.621Z,130.45
2023-02-11T13:55:03.704Z,129.45
2023-02-11T13:57:33.154Z,135.13
2023-02-11T14:00:06.209Z,125.95
2023-02-11T14:02:53.654Z,118.53
2023-02-11T14:05:42.062Z,118.72
2023-02-11T14:08:28.207Z,115.07
2023-02-11T14:10:58.246Z,109.63
2023-02-11T14:13:28.564Z,101.20
2023-02-11T14:16:04.572Z,103.65
2023-02-11T14:18:38.594Z,101.38
2023-02-11T14:21:16.757Z,106.15
2023-02-11T14:23:44.217Z,94.57
2023-02-11T14:26:20.539Z,91.50
2023-02-11T14:29:06.283Z,89.18
2023-02-11T14:31:42.812Z,89.18
2023-02-11T14:34:36.143Z,87.75
2023-02-11T14:37:09.269Z,83.90
2023-02-11T14:39:36.537Z,84.45
2023-02-11T14:42:04.591Z,83.65
2023-02-11T14:44:33.782Z,79.25
2023-02-11T14:47:01.204Z,77.60
2023-02-11T14:49:30.334Z,77.43
2023-02-11T14:52:01.018Z,77.65
2023-02-11T14:54:28.930Z,72.95
2023-02-11T14:57:11.199Z,75.53
2023-02-11T14:59:38.537Z,68.80
2023-02-11T15:02:20.411Z,64.88
2023-02-11T15:04:47.576Z,67.93
2023-02-11T15:07:15.404Z,61.08
2023-02-11T15:09:44.600Z,66.05
2023-02-11T15:12:23.771Z,65.93
2023-02-11T15:14:55.369Z,66.40
2023-02-11T15:17:24.349Z,63.47
2023-02-11T15:19:53.250Z,61.45
2023-02-11T15:22:22.947Z,59.50
2023-02-11T15:25:03.587Z,57.95
2023-02-11T15:27:38.671Z,56.90
2023-02-11T15:30:18.218Z,53.67
2023-02-11T15:32:45.393Z,56.30
2023-02-11T15:35:13.690Z,57.08
2023-02-11T15:37:40.928Z,56.22
2023-02-11T15:40:12.647Z,55.38
2023-02-11T15:42:52.144Z,53.33
2023-02-11T15:45:25.970Z,50.75
2023-02-11T15:47:54.086Z,53.40
2023-02-11T15:50:26.362Z,53.15
2023-02-11T15:52:54.423Z,53.08
2023-02-11T15:55:21.781Z,49.80
2023-02-11T15:57:57.103Z,46.25
2023-02-11T16:00:25.451Z,46.22
2023-02-11T16:02:53.143Z,45.10
2023-02-11T16:05:28.405Z,48.72
2023-02-11T16:07:56.867Z,46.92
2023-02-11T16:10:29.690Z,44.67
2023-02-11T16:13:00.179Z,45.50
2023-02-11T16:15:38.298Z,45.40
2023-02-11T16:18:13.238Z,43.58
2023-02-11T16:20:40.782Z,44.20
2023-02-11T16:23:08.700Z,46.42
2023-02-11T16:25:36.148Z,43.67
2023-02-11T16:28:03.422Z,42.00
2023-02-11T16:30:34.300Z,42.88
2023-02-11T16:33:01.562Z,42.95
2023-02-11T16:35:28.773Z,39.88
2023-02-11T16:37:55.923Z,40.78
2023-02-11T16:40:23.602Z,40.45
2023-02-11T16:42:52.446Z,39.35
2023-02-11T16:45:19.800Z,38.70
2023-02-11T16:47:47.013Z,38.78
2023-02-11T16:50:21.497Z,35.33
2023-02-11T16:52:48.964Z,36.53
2023-02-11T16:55:16.391Z,38.10
2023-02-11T16:57:43.512Z,38.35
2023-02-11T17:00:12.032Z,37.20
2023-02-11T17:02:39.748Z,35.97
2023-02-11T17:05:08.006Z,33.42
2023-02-11T17:07:35.451Z,35.20
2023-02-11T17:10:02.702Z,35.45
2023-02-11T17:12:29.913Z,32.72
2023-02-11T17:14:57.069Z,33.60
2023-02-11T17:17:24.262Z,35.22
2023-02-11T17:19:51.519Z,33.70
2023-02-11T17:22:18.860Z,34.63
2023-02-11T17:24:46.197Z,33.80
2023-02-11T17:27:13.737Z,34.00
2023-02-11T17:29:40.867Z,31.67
2023-02-11T17:32:08.099Z,29.77
2023-02-11T17:34:35.269Z,32.22
2023-02-11T17:37:08.899Z,32.20
2023-02-11T17:39:36.725Z,30.27
2023-02-11T17:42:04.029Z,31.10
2023-02-11T17:44:31.193Z,29.70
2023-02-11T17:46:58.321Z,28.70
2023-02-11T17:49:25.901Z,29.95
2023-02-11T17:51:53.087Z,30.80
2023-02-11T17:54:21.014Z,27.48
2023-02-11T17:56:50.788Z,27.42
2023-02-11T17:59:18.419Z,27.98
2023-02-11T18:01:45.586Z,27.23
2023-02-11T18:04:17.628Z,28.08
2023-02-11T18:06:45.171Z,27.55
2023-02-11T18:09:12.603Z,27.33
2023-02-11T18:11:39.982Z,29.08
2023-02-11T18:14:08.501Z,26.17
2023-02-11T18:16:38.679Z,27.58
2023-02-11T18:19:07.471Z,28.27
2023-02-11T18:21:34.694Z,27.38
2023-02-11T18:24:06.555Z,28.02
2023-02-11T18:26:34.492Z,26.38
2023-02-11T18:29:01.644Z,25.95
2023-02-11T18:31:28.879Z,26.50
2023-02-11T18:33:56.237Z,24.85
2023-02-11T18:36:23.657Z,26.58
2023-02-11T18:38:52.580Z,26.05
2023-02-11T18:41:20.199Z,25.33
2023-02-11T18:43:47.447Z,25.45
2023-02-11T18:46:15.810Z,24.65
2023-02-11T18:48:44.787Z,23.77
2023-02-11T18:51:14.654Z,21.52
2023-02-11T18:53:42.188Z,23.15
2023-02-11T18:56:10.773Z,24.27
2023-02-11T18:58:38.083Z,23.88
2023-02-11T19:01:16.634Z,25.33
2023-02-11T19:03:44.818Z,23.88
2023-02-11T19:06:16.566Z,22.50
2023-02-11T19:08:43.709Z,23.92
2023-02-11T19:11:10.962Z,24.05
2023-02-11T19:13:38.083Z,24.15
2023-02-11T19:16:07.012Z,23.83
2023-02-11T19:18:35.917Z,22.63
2023-02-11T19:21:13.151Z,24.38
2023-02-11T19:23:40.336Z,22.77
2023-02-11T19:26:07.568Z,21.77
2023-02-11T19:28:37.029Z,22.35
2023-02-11T19:31:08.673Z,21.60
2023-02-11T19:33:35.920Z,20.77
2023-02-11T19:36:04.479Z,21.70
2023-02-11T19:38:31.646Z,19.83
2023-02-11T19:40:59.444Z,20.75
2023-02-11T19:43:27.015Z,19.20
2023-02-11T19:45:56.270Z,21.30
2023-02-11T19:48:23.961Z,22.08
2023-02-11T19:50:51.252Z,21.27
2023-02-11T19:53:18.418Z,20.17
2023-02-11T19:55:45.540Z,21.27
2023-02-11T19:58:12.663Z,20.75
2023-02-11T20:00:39.898Z,19.92
2023-02-11T20:03:07.234Z,20.33
2023-02-11T20:05:34.764Z,20.15
2023-02-11T20:08:02.058Z,21.85
2023-02-11T20:10:29.238Z,19.88
2023-02-11T20:12:56.472Z,20.67
2023-02-11T20:15:23.658Z,19.63
2023-02-11T20:17:50.878Z,20.10
2023-02-11T20:20:18.475Z,20.83
2023-02-11T20:22:45.731Z,19.77
2023-02-11T20:25:12.902Z,20.02
2023-02-11T20:27:41.050Z,19.30
2023-02-11T20:30:08.635Z,19.10
2023-02-11T20:32:38.399Z,18.90
2023-02-11T20:35:07.235Z,19.48
2023-02-11T20:37:34.634Z,19.80
2023-02-11T20:40:01.864Z,20.35
2023-02-11T20:42:29.255Z,19.88
2023-02-11T20:44:56.386Z,18.38
2023-02-11T20:47:23.529Z,18.80
2023-02-11T20:49:50.714Z,19.65
2023-02-11T20:52:17.902Z,18.75
2023-02-11T20:54:45.039Z,19.45
2023-02-11T20:57:12.321Z,19.13
2023-02-11T20:59:39.550Z,18.25
2023-02-11T21:02:06.804Z,19.85
2023-02-11T21:04:34.121Z,18.90
2023-02-11T21:07:02.273Z,17.85
2023-02-11T21:09:30.792Z,18.85
2023-02-11T21:11:58.056Z,19.90
2023-02-11T21:14:25.727Z,18.95
2023-02-11T21:16:53.173Z,17.65
2023-02-11T21:19:20.440Z,19.08
2023-02-11T21:21:47.650Z,19.30
2023-02-11T21:24:14.904Z,19.52
2023-02-11T21:26:42.309Z,17.73
2023-02-11T21:29:09.801Z,18.38
2023-02-11T21:31:37.312Z,18.75
2023-02-11T21:34:05.214Z,18.67
2023-02-11T21:36:32.461Z,17.63
2023-02-11T21:39:01.663Z,17.73
2023-02-11T21:41:29.052Z,16.52
2023-02-11T21:43:56.245Z,17.95
2023-02-11T21:46:23.636Z,17.48
2023-02-11T21:48:51.054Z,17.13
2023-02-11T21:53:47.704Z,16.52
2023-02-11T21:56:16.264Z,17.85
2023-02-11T21:58:43.880Z,17.17
2023-02-11T22:01:18.785Z,18.33
2023-02-11T22:03:46.499Z,17.77
2023-02-11T22:06:15.408Z,18.52
2023-02-11T22:08:42.575Z,17.38
2023-02-11T22:11:10.842Z,16.48
2023-02-11T22:13:38.020Z,19.52
2023-02-11T22:16:06.805Z,18.23
2023-02-11T22:18:34.274Z,19.50
2023-02-11T22:21:02.522Z,17.65
2023-02-11T22:23:30.309Z,18.88
2023-02-11T22:25:58.034Z,18.73
2023-02-11T22:28:26.129Z,16.85
2023-02-11T22:30:54.704Z,18.48
2023-02-11T22:33:23.379Z,17.52
2023-02-11T22:35:50.765Z,20.27
2023-02-11T22:38:17.948Z,17.75
2023-02-11T22:40:45.094Z,17.27
2023-02-11T22:43:12.244Z,19.83
2023-02-11T22:45:39.506Z,17.73
2023-02-11T22:48:06.745Z,17.92
2023-02-11T22:50:34.961Z,19.98
2023-02-11T22:53:02.237Z,18.30
2023-02-11T22:55:29.400Z,19.20
2023-02-11T22:57:56.618Z,18.63
2023-02-11T23:00:25.586Z,18.10
2023-02-11T23:02:52.822Z,18.42
2023-02-11T23:05:20.021Z,18.75
2023-02-11T23:07:47.116Z,20.10
2023-02-11T23:10:14.410Z,18.80
2023-02-11T23:12:41.550Z,18.95
2023-02-11T23:15:08.884Z,18.05
2023-02-11T23:17:36.097Z,18.65
2023-02-11T23:20:03.604Z,19.00
2023-02-11T23:22:30.793Z,18.40
2023-02-11T23:24:57.894Z,19.25
2023-02-11T23:27:25.075Z,17.70
2023-02-11T23:29:52.328Z,18.83
2023-02-11T23:32:19.527Z,18.38
2023-02-11T23:34:46.776Z,17.98
2023-02-11T23:37:13.935Z,16.77
2023-02-11T23:39:41.085Z,17.73
2023-02-11T23:42:09.035Z,18.08
2023-02-11T23:44:36.162Z,17.52
2023-02-11T23:47:03.304Z,17.55
2023-02-11T23:49:30.480Z,18.27
2023-02-11T23:51:57.779Z,17.52
2023-02-11T23:54:24.905Z,18.15
2023-02-11T23:56:52.059Z,17.30
2023-02-11T23:59:19.241Z,17.75
